sensor_id;sensor_type;location;lat;lon;timestamp;pressure;altitude;pressure_sealevel;temperature;humidity
22025;BME280;11176;51.448;6.650;2023-04-06T00:00:07;36078.59;;;-141.29;89.01
22025;BME280;11176;51.448;6.650;2023-04-06T00:02:36;36088.56;;;-141.29;88.91
22025;BME280;11176;51.448;6.650;2023-04-06T00:05:03;36070.63;;;-141.29;89.14
22025;BME280;11176;51.448;6.650;2023-04-06T00:07:29;36108.47;;;-141.29;89.21
22025;BME280;11176;51.448;6.650;2023-04-06T00:09:56;36116.44;;;-141.29;89.69
22025;BME280;11176;51.448;6.650;2023-04-06T00:12:22;36114.47;;;-141.29;89.58
22025;BME280;11176;51.448;6.650;2023-04-06T00:14:49;36166.28;;;-141.29;89.78
22025;BME280;11176;51.448;6.650;2023-04-06T00:17:16;36156.31;;;-141.29;90.31
22025;BME280;11176;51.448;6.650;2023-04-06T00:19:42;36192.19;;;-141.29;90.54
22025;BME280;11176;51.448;6.650;2023-04-06T00:22:09;36238.03;;;-141.29;91.00
22025;BME280;11176;51.448;6.650;2023-04-06T00:24:36;36247.97;;;-141.29;90.97
22025;BME280;11176;51.448;6.650;2023-04-06T00:27:02;36249.97;;;-141.29;91.46
22025;BME280;11176;51.448;6.650;2023-04-06T00:29:28;36291.84;;;-141.29;91.65
22025;BME280;11176;51.448;6.650;2023-04-06T00:31:55;36277.88;;;-141.29;91.81
22025;BME280;11176;51.448;6.650;2023-04-06T00:34:21;36297.81;;;-141.29;91.85
22025;BME280;11176;51.448;6.650;2023-04-06T00:36:48;36353.63;;;-141.29;92.43
22025;BME280;11176;51.448;6.650;2023-04-06T00:39:14;36389.50;;;-141.29;92.32
22025;BME280;11176;51.448;6.650;2023-04-06T00:41:46;36417.38;;;-141.29;92.60
22025;BME280;11176;51.448;6.650;2023-04-06T00:44:15;36387.50;;;-141.29;92.81
22025;BME280;11176;51.448;6.650;2023-04-06T00:46:41;36441.31;;;-141.29;92.79
22025;BME280;11176;51.448;6.650;2023-04-06T00:49:08;36473.19;;;-141.29;92.76
22025;BME280;11176;51.448;6.650;2023-04-06T00:51:34;36453.28;;;-141.29;92.71
22025;BME280;11176;51.448;6.650;2023-04-06T00:54:01;36475.19;;;-141.29;92.88
22025;BME280;11176;51.448;6.650;2023-04-06T00:56:30;36509.06;;;-141.29;92.81
22025;BME280;11176;51.448;6.650;2023-04-06T00:58:57;36521.03;;;-141.29;92.96
22025;BME280;11176;51.448;6.650;2023-04-06T01:01:24;36552.94;;;-141.29;93.28
22025;BME280;11176;51.448;6.650;2023-04-06T01:03:53;36574.84;;;-141.29;93.05
22025;BME280;11176;51.448;6.650;2023-04-06T01:06:20;36576.84;;;-141.29;93.16
22025;BME280;11176;51.448;6.650;2023-04-06T01:08:56;36592.78;;;-141.29;92.63
22025;BME280;11176;51.448;6.650;2023-04-06T01:11:24;36612.72;;;-141.29;92.88
22025;BME280;11176;51.448;6.650;2023-04-06T01:13:53;36596.78;;;-141.29;92.88
22025;BME280;11176;51.448;6.650;2023-04-06T01:16:45;36630.66;;;-141.29;93.28
22025;BME280;11176;51.448;6.650;2023-04-06T01:19:15;36618.69;;;-141.29;93.13
22025;BME280;11176;51.448;6.650;2023-04-06T01:21:45;36646.59;;;-141.29;93.65
22025;BME280;11176;51.448;6.650;2023-04-06T01:24:30;36654.56;;;-141.29;93.48
22025;BME280;11176;51.448;6.650;2023-04-06T01:27:10;36694.44;;;-141.29;93.85
22025;BME280;11176;51.448;6.650;2023-04-06T01:30:03;36724.34;;;-141.29;93.99
22025;BME280;11176;51.448;6.650;2023-04-06T01:32:37;36744.28;;;-141.29;93.91
22025;BME280;11176;51.448;6.650;2023-04-06T01:35:05;36790.13;;;-141.29;94.46
22025;BME280;11176;51.448;6.650;2023-04-06T01:37:36;36790.13;;;-141.29;94.78
22025;BME280;11176;51.448;6.650;2023-04-06T01:40:05;36800.09;;;-141.29;94.99
22025;BME280;11176;51.448;6.650;2023-04-06T01:42:42;36855.91;;;-141.29;94.92
22025;BME280;11176;51.448;6.650;2023-04-06T01:45:12;36885.78;;;-141.29;95.18
22025;BME280;11176;51.448;6.650;2023-04-06T01:47:38;36921.69;;;-141.29;95.55
22025;BME280;11176;51.448;6.650;2023-04-06T01:50:06;36979.50;;;-141.29;95.53
22025;BME280;11176;51.448;6.650;2023-04-06T01:52:39;36995.44;;;-141.29;95.53
22025;BME280;11176;51.448;6.650;2023-04-06T01:55:06;36991.44;;;-141.29;95.04
22025;BME280;11176;51.448;6.650;2023-04-06T01:57:49;37015.38;;;-141.29;94.95
22025;BME280;11176;51.448;6.650;2023-04-06T02:00:28;36995.44;;;-141.29;94.66
22025;BME280;11176;51.448;6.650;2023-04-06T02:02:55;37031.31;;;-141.29;94.75
22025;BME280;11176;51.448;6.650;2023-04-06T02:05:26;37003.41;;;-141.29;94.44
22025;BME280;11176;51.448;6.650;2023-04-06T02:07:54;37003.41;;;-141.29;94.64
22025;BME280;11176;51.448;6.650;2023-04-06T02:10:29;37019.34;;;-141.29;94.31
22025;BME280;11176;51.448;6.650;2023-04-06T02:12:59;37047.25;;;-141.29;94.30
22025;BME280;11176;51.448;6.650;2023-04-06T02:15:26;37047.25;;;-141.29;94.33
22025;BME280;11176;51.448;6.650;2023-04-06T02:17:53;37019.34;;;-141.29;94.02
22025;BME280;11176;51.448;6.650;2023-04-06T02:20:20;37037.28;;;-141.29;93.80
22025;BME280;11176;51.448;6.650;2023-04-06T02:22:46;36997.44;;;-141.29;93.09
22025;BME280;11176;51.448;6.650;2023-04-06T02:25:13;37005.41;;;-141.29;92.43
22025;BME280;11176;51.448;6.650;2023-04-06T02:27:39;36995.44;;;-141.29;92.04
22025;BME280;11176;51.448;6.650;2023-04-06T02:30:06;36975.50;;;-141.29;91.95
22025;BME280;11176;51.448;6.650;2023-04-06T02:32:33;36991.44;;;-141.29;92.47
22025;BME280;11176;51.448;6.650;2023-04-06T02:35:00;36955.56;;;-141.29;92.16
22025;BME280;11176;51.448;6.650;2023-04-06T02:37:29;36983.47;;;-141.29;92.63
22025;BME280;11176;51.448;6.650;2023-04-06T02:39:55;37019.34;;;-141.29;92.79
22025;BME280;11176;51.448;6.650;2023-04-06T02:42:22;36987.47;;;-141.29;92.58
22025;BME280;11176;51.448;6.650;2023-04-06T02:44:50;36975.50;;;-141.29;92.56
22025;BME280;11176;51.448;6.650;2023-04-06T02:47:19;36971.50;;;-141.29;92.19
22025;BME280;11176;51.448;6.650;2023-04-06T02:49:49;36983.47;;;-141.29;92.30
22025;BME280;11176;51.448;6.650;2023-04-06T02:52:16;36987.47;;;-141.29;92.68
22025;BME280;11176;51.448;6.650;2023-04-06T02:54:44;36991.44;;;-141.29;92.45
22025;BME280;11176;51.448;6.650;2023-04-06T02:57:11;36999.41;;;-141.29;92.88
22025;BME280;11176;51.448;6.650;2023-04-06T02:59:41;37007.41;;;-141.29;92.87
22025;BME280;11176;51.448;6.650;2023-04-06T03:02:16;36979.50;;;-141.29;92.61
22025;BME280;11176;51.448;6.650;2023-04-06T03:04:44;37013.38;;;-141.29;92.81
22025;BME280;11176;51.448;6.650;2023-04-06T03:07:20;37027.31;;;-141.29;93.25
22025;BME280;11176;51.448;6.650;2023-04-06T03:09:46;36995.44;;;-141.29;92.94
22025;BME280;11176;51.448;6.650;2023-04-06T03:12:13;37011.38;;;-141.29;92.86
22025;BME280;11176;51.448;6.650;2023-04-06T03:14:59;37035.31;;;-141.29;93.48
22025;BME280;11176;51.448;6.650;2023-04-06T03:17:27;37063.22;;;-141.29;93.43
22025;BME280;11176;51.448;6.650;2023-04-06T03:19:59;37035.31;;;-141.29;93.17
22025;BME280;11176;51.448;6.650;2023-04-06T03:22:26;37083.16;;;-141.29;93.19
22025;BME280;11176;51.448;6.650;2023-04-06T03:24:53;37071.19;;;-141.29;93.51
22025;BME280;11176;51.448;6.650;2023-04-06T03:27:20;37107.06;;;-141.29;93.80
22025;BME280;11176;51.448;6.650;2023-04-06T03:29:47;37077.16;;;-141.29;93.83
22025;BME280;11176;51.448;6.650;2023-04-06T03:32:19;37091.13;;;-141.29;93.92
22025;BME280;11176;51.448;6.650;2023-04-06T03:34:46;37059.22;;;-141.29;93.28
22025;BME280;11176;51.448;6.650;2023-04-06T03:37:12;37079.16;;;-141.29;93.27
22025;BME280;11176;51.448;6.650;2023-04-06T03:39:45;37079.16;;;-141.29;92.16
22025;BME280;11176;51.448;6.650;2023-04-06T03:42:18;37099.09;;;-141.29;91.56
22025;BME280;11176;51.448;6.650;2023-04-06T03:44:50;37063.22;;;-141.29;91.54
22025;BME280;11176;51.448;6.650;2023-04-06T03:47:17;37043.28;;;-141.29;90.28
22025;BME280;11176;51.448;6.650;2023-04-06T03:49:44;36989.44;;;-141.29;89.33
22025;BME280;11176;51.448;6.650;2023-04-06T03:52:12;36997.44;;;-141.29;89.14
22025;BME280;11176;51.448;6.650;2023-04-06T03:54:39;37005.41;;;-141.29;88.79
22025;BME280;11176;51.448;6.650;2023-04-06T03:57:07;36987.47;;;-141.29;89.82
22025;BME280;11176;51.448;6.650;2023-04-06T03:59:33;37019.34;;;-141.29;89.96
22025;BME280;11176;51.448;6.650;2023-04-06T04:02:00;37011.38;;;-141.29;89.69
22025;BME280;11176;51.448;6.650;2023-04-06T04:04:28;36987.47;;;-141.29;90.08
22025;BME280;11176;51.448;6.650;2023-04-06T04:06:57;37025.34;;;-141.29;89.77
22025;BME280;11176;51.448;6.650;2023-04-06T04:09:23;36981.47;;;-141.29;90.33
22025;BME280;11176;51.448;6.650;2023-04-06T04:11:50;37013.38;;;-141.29;90.37
22025;BME280;11176;51.448;6.650;2023-04-06T04:14:17;37003.41;;;-141.29;89.94
22025;BME280;11176;51.448;6.650;2023-04-06T04:16:44;36979.50;;;-141.29;88.12
22025;BME280;11176;51.448;6.650;2023-04-06T04:19:11;36917.69;;;-141.29;87.48
22025;BME280;11176;51.448;6.650;2023-04-06T04:21:46;36939.63;;;-141.29;87.44
22025;BME280;11176;51.448;6.650;2023-04-06T04:24:17;36929.66;;;-141.29;86.94
22025;BME280;11176;51.448;6.650;2023-04-06T04:26:43;36871.84;;;-141.29;85.73
22025;BME280;11176;51.448;6.650;2023-04-06T04:29:10;36887.78;;;-141.29;85.44
22025;BME280;11176;51.448;6.650;2023-04-06T04:31:37;36839.94;;;-141.29;84.58
22025;BME280;11176;51.448;6.650;2023-04-06T04:34:10;36855.91;;;-141.29;85.32
22025;BME280;11176;51.448;6.650;2023-04-06T04:36:37;36831.97;;;-141.29;84.02
22025;BME280;11176;51.448;6.650;2023-04-06T04:39:07;36831.97;;;-141.29;84.41
22025;BME280;11176;51.448;6.650;2023-04-06T04:41:39;36828.00;;;-141.29;84.53
22025;BME280;11176;51.448;6.650;2023-04-06T04:44:08;36812.03;;;-141.29;84.34
22025;BME280;11176;51.448;6.650;2023-04-06T04:46:35;36824.00;;;-141.29;84.78
22025;BME280;11176;51.448;6.650;2023-04-06T04:49:01;36863.88;;;-141.29;86.05
22025;BME280;11176;51.448;6.650;2023-04-06T04:51:30;36855.91;;;-141.29;86.89
22025;BME280;11176;51.448;6.650;2023-04-06T04:54:12;36879.81;;;-141.29;87.65
22025;BME280;11176;51.448;6.650;2023-04-06T04:56:40;36887.78;;;-141.29;87.96
22025;BME280;11176;51.448;6.650;2023-04-06T04:59:17;36907.72;;;-141.29;88.72
22025;BME280;11176;51.448;6.650;2023-04-06T05:01:51;36897.75;;;-141.29;88.64
22025;BME280;11176;51.448;6.650;2023-04-06T05:04:27;36897.75;;;-141.29;89.05
22025;BME280;11176;51.448;6.650;2023-04-06T05:07:08;36913.72;;;-141.29;89.70
22025;BME280;11176;51.448;6.650;2023-04-06T05:09:38;36911.72;;;-141.29;90.08
22025;BME280;11176;51.448;6.650;2023-04-06T05:12:05;36913.72;;;-141.29;90.13
22025;BME280;11176;51.448;6.650;2023-04-06T05:14:38;36915.69;;;-141.29;90.85
22025;BME280;11176;51.448;6.650;2023-04-06T05:17:11;36931.66;;;-141.29;91.11
22025;BME280;11176;51.448;6.650;2023-04-06T05:19:37;36959.56;;;-141.29;91.31
22025;BME280;11176;51.448;6.650;2023-04-06T05:22:04;36931.66;;;-141.29;91.48
22025;BME280;11176;51.448;6.650;2023-04-06T05:24:33;36961.53;;;-141.29;91.24
22025;BME280;11176;51.448;6.650;2023-04-06T05:27:04;36979.50;;;-141.29;91.30
22025;BME280;11176;51.448;6.650;2023-04-06T05:29:31;36979.50;;;-141.29;92.05
22025;BME280;11176;51.448;6.650;2023-04-06T05:31:57;37011.38;;;-141.29;92.47
22025;BME280;11176;51.448;6.650;2023-04-06T05:34:24;37027.31;;;-141.29;92.44
22025;BME280;11176;51.448;6.650;2023-04-06T05:36:50;37019.34;;;-141.29;92.82
22025;BME280;11176;51.448;6.650;2023-04-06T05:39:20;37035.31;;;-141.29;92.25
22025;BME280;11176;51.448;6.650;2023-04-06T05:41:49;37019.34;;;-141.29;92.34
22025;BME280;11176;51.448;6.650;2023-04-06T05:44:27;37031.31;;;-141.29;91.22
22025;BME280;11176;51.448;6.650;2023-04-06T05:47:02;36981.47;;;-141.29;89.49
22025;BME280;11176;51.448;6.650;2023-04-06T05:49:29;37011.38;;;-141.29;89.45
22025;BME280;11176;51.448;6.650;2023-04-06T05:51:55;36981.47;;;-141.29;88.27
22025;BME280;11176;51.448;6.650;2023-04-06T05:54:22;36995.44;;;-141.29;87.47
22025;BME280;11176;51.448;6.650;2023-04-06T05:56:50;36951.56;;;-141.29;86.13
22025;BME280;11176;51.448;6.650;2023-04-06T05:59:17;36939.63;;;-141.29;85.19
22025;BME280;11176;51.448;6.650;2023-04-06T06:01:44;36943.59;;;-141.29;84.69
22025;BME280;11176;51.448;6.650;2023-04-06T06:04:11;36927.66;;;-141.29;83.35
22025;BME280;11176;51.448;6.650;2023-04-06T06:06:39;36909.72;;;-141.29;83.01
22025;BME280;11176;51.448;6.650;2023-04-06T06:09:23;37027.31;;;-141.29;87.23
22025;BME280;11176;51.448;6.650;2023-04-06T06:12:08;37055.25;;;-141.29;85.40
22025;BME280;11176;51.448;6.650;2023-04-06T06:14:36;37023.34;;;-141.29;84.93
22025;BME280;11176;51.448;6.650;2023-04-06T06:17:02;36939.63;;;-141.29;81.19
22025;BME280;11176;51.448;6.650;2023-04-06T06:19:29;36875.84;;;-141.29;79.81
22025;BME280;11176;51.448;6.650;2023-04-06T06:22:00;36873.84;;;-141.29;77.82
22025;BME280;11176;51.448;6.650;2023-04-06T06:24:29;36871.84;;;-141.29;77.92
22025;BME280;11176;51.448;6.650;2023-04-06T06:26:58;36863.88;;;-141.29;76.86
22025;BME280;11176;51.448;6.650;2023-04-06T06:29:27;36816.03;;;-141.29;75.92
22025;BME280;11176;51.448;6.650;2023-04-06T06:31:54;36835.97;;;-141.29;75.17
22025;BME280;11176;51.448;6.650;2023-04-06T06:34:22;36812.03;;;-141.29;75.43
22025;BME280;11176;51.448;6.650;2023-04-06T06:36:49;36847.94;;;-141.29;74.50
22025;BME280;11176;51.448;6.650;2023-04-06T06:39:18;36792.13;;;-141.29;73.59
22025;BME280;11176;51.448;6.650;2023-04-06T06:41:46;36843.94;;;-141.29;72.32
22025;BME280;11176;51.448;6.650;2023-04-06T06:44:12;36796.09;;;-141.29;71.59
22025;BME280;11176;51.448;6.650;2023-04-06T06:46:39;36768.19;;;-141.29;71.43
22025;BME280;11176;51.448;6.650;2023-04-06T06:49:06;36760.22;;;-141.29;70.67
22025;BME280;11176;51.448;6.650;2023-04-06T06:51:32;36768.19;;;-141.29;69.41
22025;BME280;11176;51.448;6.650;2023-04-06T06:54:00;36754.25;;;-141.29;67.84
22025;BME280;11176;51.448;6.650;2023-04-06T06:56:26;36740.28;;;-141.29;68.08
22025;BME280;11176;51.448;6.650;2023-04-06T06:58:54;36732.31;;;-141.29;67.61
22025;BME280;11176;51.448;6.650;2023-04-06T07:01:21;36766.19;;;-141.29;67.19
22025;BME280;11176;51.448;6.650;2023-04-06T07:03:48;36760.22;;;-141.29;66.18
22025;BME280;11176;51.448;6.650;2023-04-06T07:06:14;36728.31;;;-141.29;65.76
22025;BME280;11176;51.448;6.650;2023-04-06T07:08:41;36712.38;;;-141.29;64.81
22025;BME280;11176;51.448;6.650;2023-04-06T07:11:08;36716.38;;;-141.29;63.75
22025;BME280;11176;51.448;6.650;2023-04-06T07:13:34;36708.41;;;-141.29;63.50
22025;BME280;11176;51.448;6.650;2023-04-06T07:16:01;36720.34;;;-141.29;63.20
22025;BME280;11176;51.448;6.650;2023-04-06T07:18:28;36712.38;;;-141.29;62.77
22025;BME280;11176;51.448;6.650;2023-04-06T07:20:55;36684.47;;;-141.29;61.83
22025;BME280;11176;51.448;6.650;2023-04-06T07:23:21;36706.41;;;-141.29;60.68
22025;BME280;11176;51.448;6.650;2023-04-06T07:25:48;36716.38;;;-141.29;62.01
22025;BME280;11176;51.448;6.650;2023-04-06T07:28:17;36702.41;;;-141.29;60.83
22025;BME280;11176;51.448;6.650;2023-04-06T07:30:43;36704.41;;;-141.29;59.39
22025;BME280;11176;51.448;6.650;2023-04-06T07:33:11;36660.56;;;-141.29;57.25
22025;BME280;11176;51.448;6.650;2023-04-06T07:35:38;36666.53;;;-141.29;57.40
22025;BME280;11176;51.448;6.650;2023-04-06T07:38:06;36674.50;;;-141.29;58.22
22025;BME280;11176;51.448;6.650;2023-04-06T07:40:34;36696.44;;;-141.29;57.77
22025;BME280;11176;51.448;6.650;2023-04-06T07:43:02;36672.50;;;-141.29;56.71
22025;BME280;11176;51.448;6.650;2023-04-06T07:45:29;37083.16;;;-141.29;72.85
22025;BME280;11176;51.448;6.650;2023-04-06T07:47:55;36784.13;;;-141.29;59.45
22025;BME280;11176;51.448;6.650;2023-04-06T07:50:24;36760.22;;;-141.29;57.98
22025;BME280;11176;51.448;6.650;2023-04-06T07:52:51;36720.34;;;-141.29;55.00
22025;BME280;11176;51.448;6.650;2023-04-06T07:55:18;36684.47;;;-141.29;55.23
22025;BME280;11176;51.448;6.650;2023-04-06T07:57:45;36694.44;;;-141.29;54.61
22025;BME280;11176;51.448;6.650;2023-04-06T08:00:12;36684.47;;;-141.29;54.56
22025;BME280;11176;51.448;6.650;2023-04-06T08:02:39;36722.34;;;-141.29;54.19
22025;BME280;11176;51.448;6.650;2023-04-06T08:05:06;36684.47;;;-141.29;54.98
22025;BME280;11176;51.448;6.650;2023-04-06T08:07:33;36682.47;;;-141.29;54.70
22025;BME280;11176;51.448;6.650;2023-04-06T08:09:59;36668.53;;;-141.29;54.68
22025;BME280;11176;51.448;6.650;2023-04-06T08:12:26;36670.53;;;-141.29;54.59
22025;BME280;11176;51.448;6.650;2023-04-06T08:14:52;36686.47;;;-141.29;53.48
22025;BME280;11176;51.448;6.650;2023-04-06T08:17:19;36732.31;;;-141.29;53.95
22025;BME280;11176;51.448;6.650;2023-04-06T08:19:46;36628.66;;;-141.29;49.78
22025;BME280;11176;51.448;6.650;2023-04-06T08:22:12;36600.75;;;-141.29;49.90
22025;BME280;11176;51.448;6.650;2023-04-06T08:24:39;36638.63;;;-141.29;49.75
22025;BME280;11176;51.448;6.650;2023-04-06T08:27:05;36606.75;;;-141.29;50.07
22025;BME280;11176;51.448;6.650;2023-04-06T08:29:32;36652.59;;;-141.29;50.53
22025;BME280;11176;51.448;6.650;2023-04-06T08:31:59;36618.69;;;-141.29;49.01
22025;BME280;11176;51.448;6.650;2023-04-06T08:34:26;36592.78;;;-141.29;48.68
22025;BME280;11176;51.448;6.650;2023-04-06T08:36:53;36656.56;;;-141.29;49.85
22025;BME280;11176;51.448;6.650;2023-04-06T08:39:19;36648.59;;;-141.29;50.54
22025;BME280;11176;51.448;6.650;2023-04-06T08:41:52;36668.53;;;-141.29;50.06
22025;BME280;11176;51.448;6.650;2023-04-06T08:44:19;36668.53;;;-141.29;50.21
22025;BME280;11176;51.448;6.650;2023-04-06T08:46:46;36650.59;;;-141.29;48.50
22025;BME280;11176;51.448;6.650;2023-04-06T08:49:14;36580.81;;;-141.29;47.08
22025;BME280;11176;51.448;6.650;2023-04-06T08:51:41;36596.78;;;-141.29;45.93
22025;BME280;11176;51.448;6.650;2023-04-06T08:54:11;36618.69;;;-141.29;47.13
22025;BME280;11176;51.448;6.650;2023-04-06T08:56:39;36564.88;;;-141.29;45.79
22025;BME280;11176;51.448;6.650;2023-04-06T08:59:06;36576.84;;;-141.29;44.31
22025;BME280;11176;51.448;6.650;2023-04-06T09:01:33;36564.88;;;-141.29;44.29
22025;BME280;11176;51.448;6.650;2023-04-06T09:04:06;36604.75;;;-141.29;45.31
22025;BME280;11176;51.448;6.650;2023-04-06T09:06:36;36654.56;;;-141.29;47.46
22025;BME280;11176;51.448;6.650;2023-04-06T09:09:03;36622.69;;;-141.29;44.50
22025;BME280;11176;51.448;6.650;2023-04-06T09:11:50;36608.72;;;-141.29;45.24
22025;BME280;11176;51.448;6.650;2023-04-06T09:14:33;36634.66;;;-141.29;44.99
22025;BME280;11176;51.448;6.650;2023-04-06T09:17:00;36608.72;;;-141.29;44.53
22025;BME280;11176;51.448;6.650;2023-04-06T09:19:27;36584.81;;;-141.29;43.99
22025;BME280;11176;51.448;6.650;2023-04-06T09:22:04;36570.88;;;-141.29;42.59
22025;BME280;11176;51.448;6.650;2023-04-06T09:24:44;36550.94;;;-141.29;42.20
22025;BME280;11176;51.448;6.650;2023-04-06T09:27:12;36533.00;;;-141.29;41.54
22025;BME280;11176;51.448;6.650;2023-04-06T09:29:40;36562.88;;;-141.29;41.96
22025;BME280;11176;51.448;6.650;2023-04-06T09:32:08;36560.91;;;-141.29;41.94
22025;BME280;11176;51.448;6.650;2023-04-06T09:34:39;36584.81;;;-141.29;42.85
22025;BME280;11176;51.448;6.650;2023-04-06T09:37:13;36568.88;;;-141.29;42.36
22025;BME280;11176;51.448;6.650;2023-04-06T09:39:40;36600.75;;;-141.29;42.24
22025;BME280;11176;51.448;6.650;2023-04-06T09:42:06;36608.72;;;-141.29;43.13
22025;BME280;11176;51.448;6.650;2023-04-06T09:44:33;36620.69;;;-141.29;43.29
22025;BME280;11176;51.448;6.650;2023-04-06T09:47:00;36576.84;;;-141.29;41.00
22025;BME280;11176;51.448;6.650;2023-04-06T09:49:28;36578.84;;;-141.29;40.64
22025;BME280;11176;51.448;6.650;2023-04-06T09:52:00;36562.88;;;-141.29;41.00
22025;BME280;11176;51.448;6.650;2023-04-06T09:54:31;36568.88;;;-141.29;40.79
22025;BME280;11176;51.448;6.650;2023-04-06T09:57:04;36554.91;;;-141.29;40.62
22025;BME280;11176;51.448;6.650;2023-04-06T10:02:20;36542.97;;;-141.29;39.47
22025;BME280;11176;51.448;6.650;2023-04-06T10:04:55;36564.88;;;-141.29;40.34
22025;BME280;11176;51.448;6.650;2023-04-06T10:07:23;36572.84;;;-141.29;40.69
22025;BME280;11176;51.448;6.650;2023-04-06T10:09:50;36540.97;;;-141.29;39.18
22025;BME280;11176;51.448;6.650;2023-04-06T10:12:17;36572.84;;;-141.29;39.54
22025;BME280;11176;51.448;6.650;2023-04-06T10:14:44;36574.84;;;-141.29;40.03
22025;BME280;11176;51.448;6.650;2023-04-06T10:17:11;36586.81;;;-141.29;40.09
22025;BME280;11176;51.448;6.650;2023-04-06T10:19:53;36592.78;;;-141.29;39.87
22025;BME280;11176;51.448;6.650;2023-04-06T10:22:28;36588.81;;;-141.29;40.28
22025;BME280;11176;51.448;6.650;2023-04-06T10:24:56;36556.91;;;-141.29;39.80
22025;BME280;11176;51.448;6.650;2023-04-06T10:27:29;36614.72;;;-141.29;40.46
22025;BME280;11176;51.448;6.650;2023-04-06T10:30:01;36596.78;;;-141.29;39.77
22025;BME280;11176;51.448;6.650;2023-04-06T10:32:35;36580.81;;;-141.29;39.22
22025;BME280;11176;51.448;6.650;2023-04-06T10:35:10;36564.88;;;-141.29;38.70
22025;BME280;11176;51.448;6.650;2023-04-06T10:37:51;36606.75;;;-141.29;40.18
22025;BME280;11176;51.448;6.650;2023-04-06T10:40:19;36600.75;;;-141.29;39.38
22025;BME280;11176;51.448;6.650;2023-04-06T10:42:46;36596.78;;;-141.29;39.86
22025;BME280;11176;51.448;6.650;2023-04-06T10:45:23;36552.94;;;-141.29;37.94
22025;BME280;11176;51.448;6.650;2023-04-06T10:47:53;36576.84;;;-141.29;39.12
22025;BME280;11176;51.448;6.650;2023-04-06T10:50:21;36606.75;;;-141.29;39.21
22025;BME280;11176;51.448;6.650;2023-04-06T10:53:01;36604.75;;;-141.29;39.09
22025;BME280;11176;51.448;6.650;2023-04-06T10:55:29;36664.53;;;-141.29;40.07
22025;BME280;11176;51.448;6.650;2023-04-06T10:57:55;36644.63;;;-141.29;39.94
22025;BME280;11176;51.448;6.650;2023-04-06T11:00:23;36598.75;;;-141.29;38.46
22025;BME280;11176;51.448;6.650;2023-04-06T11:02:59;36642.63;;;-141.29;39.51
22025;BME280;11176;51.448;6.650;2023-04-06T11:05:25;36638.63;;;-141.29;39.39
22025;BME280;11176;51.448;6.650;2023-04-06T11:07:52;36600.75;;;-141.29;38.92
22025;BME280;11176;51.448;6.650;2023-04-06T11:10:22;36606.75;;;-141.29;39.04
22025;BME280;11176;51.448;6.650;2023-04-06T11:12:56;36592.78;;;-141.29;39.27
22025;BME280;11176;51.448;6.650;2023-04-06T11:15:23;36604.75;;;-141.29;39.53
22025;BME280;11176;51.448;6.650;2023-04-06T11:17:49;36614.72;;;-141.29;40.28
22025;BME280;11176;51.448;6.650;2023-04-06T11:20:16;36628.66;;;-141.29;40.47
22025;BME280;11176;51.448;6.650;2023-04-06T11:22:53;36658.56;;;-141.29;41.63
22025;BME280;11176;51.448;6.650;2023-04-06T11:25:19;36664.53;;;-141.29;42.03
22025;BME280;11176;51.448;6.650;2023-04-06T11:27:47;36664.53;;;-141.29;41.93
22025;BME280;11176;51.448;6.650;2023-04-06T11:30:14;36640.63;;;-141.29;41.64
22025;BME280;11176;51.448;6.650;2023-04-06T11:32:42;36644.63;;;-141.29;42.14
22025;BME280;11176;51.448;6.650;2023-04-06T11:35:22;36660.56;;;-141.29;42.91
22025;BME280;11176;51.448;6.650;2023-04-06T11:37:50;36606.75;;;-141.29;41.46
22025;BME280;11176;51.448;6.650;2023-04-06T11:40:23;36628.66;;;-141.29;40.69
22025;BME280;11176;51.448;6.650;2023-04-06T11:42:55;36616.72;;;-141.29;41.02
22025;BME280;11176;51.448;6.650;2023-04-06T11:45:22;36660.56;;;-141.29;41.93
22025;BME280;11176;51.448;6.650;2023-04-06T11:47:56;36676.50;;;-141.29;42.34
22025;BME280;11176;51.448;6.650;2023-04-06T11:50:24;36676.50;;;-141.29;41.10
22025;BME280;11176;51.448;6.650;2023-04-06T11:53:01;36670.53;;;-141.29;41.26
22025;BME280;11176;51.448;6.650;2023-04-06T11:55:29;36704.41;;;-141.29;41.66
22025;BME280;11176;51.448;6.650;2023-04-06T11:57:58;36640.63;;;-141.29;39.47
22025;BME280;11176;51.448;6.650;2023-04-06T12:00:25;36664.53;;;-141.29;40.06
22025;BME280;11176;51.448;6.650;2023-04-06T12:02:52;36610.72;;;-141.29;39.41
22025;BME280;11176;51.448;6.650;2023-04-06T12:05:18;36662.56;;;-141.29;40.46
22025;BME280;11176;51.448;6.650;2023-04-06T12:07:45;36694.44;;;-141.29;39.24
22025;BME280;11176;51.448;6.650;2023-04-06T12:10:12;36720.34;;;-141.29;40.45
22025;BME280;11176;51.448;6.650;2023-04-06T12:12:39;36758.22;;;-141.29;41.08
22025;BME280;11176;51.448;6.650;2023-04-06T12:15:06;36784.13;;;-141.29;42.12
22025;BME280;11176;51.448;6.650;2023-04-06T12:17:33;36724.34;;;-141.29;39.69
22025;BME280;11176;51.448;6.650;2023-04-06T12:19:59;36740.28;;;-141.29;39.30
22025;BME280;11176;51.448;6.650;2023-04-06T12:22:31;36750.25;;;-141.29;39.01
22025;BME280;11176;51.448;6.650;2023-04-06T12:24:57;36712.38;;;-141.29;39.02
22025;BME280;11176;51.448;6.650;2023-04-06T12:27:24;36722.34;;;-141.29;39.04
22025;BME280;11176;51.448;6.650;2023-04-06T12:29:51;36726.34;;;-141.29;38.47
22025;BME280;11176;51.448;6.650;2023-04-06T12:32:18;36736.31;;;-141.29;39.14
22025;BME280;11176;51.448;6.650;2023-04-06T12:34:45;36724.34;;;-141.29;39.14
22025;BME280;11176;51.448;6.650;2023-04-06T12:37:11;36660.56;;;-141.29;38.21
22025;BME280;11176;51.448;6.650;2023-04-06T12:39:38;36670.53;;;-141.29;38.89
22025;BME280;11176;51.448;6.650;2023-04-06T12:42:04;36692.44;;;-141.29;39.12
22025;BME280;11176;51.448;6.650;2023-04-06T12:44:31;36684.47;;;-141.29;39.57
22025;BME280;11176;51.448;6.650;2023-04-06T12:46:57;36680.50;;;-141.29;40.86
22025;BME280;11176;51.448;6.650;2023-04-06T12:49:24;36678.50;;;-141.29;40.51
22025;BME280;11176;51.448;6.650;2023-04-06T12:51:50;36640.63;;;-141.29;40.99